createdAt,value
2017-08-11T00:00:29.283Z,58.15
2017-08-11T00:01:29.269Z,58.08
2017-08-11T00:02:29.260Z,57.7
2017-08-11T00:03:29.248Z,57.98
2017-08-11T00:04:28.922Z,58.27
2017-08-11T00:05:28.910Z,58.08
2017-08-11T00:06:29.216Z,58.17
2017-08-11T00:07:29.211Z,58.37
2017-08-11T00:08:29.189Z,58.17
2017-08-11T00:09:28.864Z,58.08
2017-08-11T00:10:29.164Z,57.89
2017-08-11T00:11:29.157Z,57.89
2017-08-11T00:12:28.833Z,57.89
2017-08-11T00:13:29.133Z,58.08
2017-08-11T00:14:28.809Z,57.89
2017-08-11T00:15:28.793Z,57.98
2017-08-11T00:16:28.790Z,57.79
2017-08-11T00:17:29.087Z,57.89
2017-08-11T00:18:28.764Z,58.27
2017-08-11T00:19:29.073Z,58.65
2017-08-11T00:20:28.740Z,59.13
2017-08-11T00:21:28.726Z,59.04
2017-08-11T00:22:28.718Z,58.94
2017-08-11T00:23:29.029Z,58.94
2017-08-11T00:24:29.004Z,58.75
2017-08-11T00:25:28.681Z,58.65
2017-08-11T00:26:28.719Z,58.75
2017-08-11T00:27:28.658Z,58.84
2017-08-11T00:28:28.963Z,58.46
2017-08-11T00:29:28.947Z,58.84
2017-08-11T00:30:28.631Z,58.75
2017-08-11T00:31:28.925Z,58.46
2017-08-11T00:32:28.598Z,58.65
2017-08-11T00:33:28.603Z,59.23
2017-08-11T00:34:28.892Z,59.13
2017-08-11T00:35:28.918Z,59.33
2017-08-11T00:36:28.867Z,59.23
2017-08-11T00:37:28.856Z,59.13
2017-08-11T00:38:28.843Z,59.04
2017-08-11T00:39:28.834Z,58.84
2017-08-11T00:40:28.513Z,59.13
2017-08-11T00:41:28.812Z,59.8
2017-08-11T00:42:28.802Z,59.42
2017-08-11T00:43:28.477Z,59.42
2017-08-11T00:44:28.462Z,59.87
2017-08-11T00:45:28.452Z,59.9
2017-08-11T00:46:28.756Z,60.06
2017-08-11T00:47:28.430Z,59.97
2017-08-11T00:48:28.736Z,60.16
2017-08-11T00:49:28.724Z,60.25
2017-08-11T00:50:28.706Z,59.97
2017-08-11T00:51:28.382Z,60.44
2017-08-11T00:52:28.690Z,60.44
2017-08-11T00:53:28.675Z,60.73
2017-08-11T00:54:28.665Z,61.11
2017-08-11T00:55:28.340Z,61.11
2017-08-11T00:56:28.348Z,61.4
2017-08-11T00:57:28.628Z,60.93
2017-08-11T00:58:28.615Z,61.11
2017-08-11T00:59:28.600Z,61.4
2017-08-11T01:00:28.592Z,61.88
2017-08-11T01:01:28.589Z,61.4
2017-08-11T01:02:28.570Z,61.6
2017-08-11T01:03:28.556Z,61.31
2017-08-11T01:04:28.542Z,61.88
2017-08-11T01:05:28.532Z,61.6
2017-08-11T01:06:28.523Z,62.26
2017-08-11T01:07:28.197Z,62.07
2017-08-11T01:08:28.505Z,62.36
2017-08-11T01:09:28.180Z,62.46
2017-08-11T01:10:28.473Z,62.84
2017-08-11T01:11:28.468Z,62.93
2017-08-11T01:12:28.449Z,62.74
2017-08-11T01:13:28.446Z,62.74
2017-08-11T01:14:28.429Z,62.84
2017-08-11T01:15:28.417Z,62.84
2017-08-11T01:16:28.620Z,62.84
2017-08-11T01:17:28.394Z,62.84
2017-08-11T01:18:28.381Z,62.84
2017-08-11T01:19:28.368Z,63.13
2017-08-11T01:20:28.354Z,62.84
2017-08-11T01:21:28.033Z,62.74
2017-08-11T01:22:28.336Z,63.13
2017-08-11T01:23:28.009Z,62.93
2017-08-11T01:24:28.314Z,62.93
2017-08-11T01:25:27.996Z,62.84
2017-08-11T01:26:28.286Z,62.93
2017-08-11T01:27:28.314Z,62.93
2017-08-11T01:28:27.952Z,63.13
2017-08-11T01:29:28.250Z,62.74
2017-08-11T01:30:27.930Z,62.65
2017-08-11T01:31:28.235Z,62.55
2017-08-11T01:32:28.218Z,62.46
2017-08-11T01:33:28.204Z,62.55
2017-08-11T01:34:28.193Z,63.03
2017-08-11T01:35:28.180Z,62.65
2017-08-11T01:36:27.864Z,62.84
2017-08-11T01:37:28.364Z,62.74
2017-08-11T01:38:28.146Z,62.74
2017-08-11T01:39:28.140Z,62.65
2017-08-11T01:40:27.811Z,62.46
2017-08-11T01:41:28.107Z,62.46
2017-08-11T01:42:28.136Z,62.65
2017-08-11T01:43:27.771Z,62.65
2017-08-11T01:44:28.075Z,62.74
2017-08-11T01:45:28.062Z,63.22
2017-08-11T01:46:28.052Z,62.93
2017-08-11T01:47:28.050Z,63.13
2017-08-11T01:48:27.719Z,62.71
2017-08-11T01:49:27.705Z,62.65
2017-08-11T01:50:27.694Z,62.9
2017-08-11T01:51:27.993Z,62.81
2017-08-11T01:52:27.984Z,62.93
2017-08-11T01:53:27.973Z,63.32
2017-08-11T01:54:27.965Z,63.22
2017-08-11T01:55:27.957Z,63.57
2017-08-11T01:56:27.960Z,63.86
2017-08-11T01:57:27.924Z,63.67
2017-08-11T01:58:27.606Z,63.76
2017-08-11T01:59:27.588Z,63.76
2017-08-11T02:00:27.886Z,63.67
2017-08-11T02:01:27.873Z,64.25
2017-08-11T02:02:27.862Z,63.96
2017-08-11T02:03:27.853Z,64.25
2017-08-11T02:04:27.836Z,64.25
2017-08-11T02:05:27.832Z,64.34
2017-08-11T02:06:27.817Z,64.43
2017-08-11T02:07:27.800Z,64.53
2017-08-11T02:08:27.800Z,64.15
2017-08-11T02:09:27.781Z,64.15
2017-08-11T02:10:27.457Z,64.34
2017-08-11T02:11:27.447Z,64.53
2017-08-11T02:12:27.748Z,64.43
2017-08-11T02:13:27.423Z,64.53
2017-08-11T02:14:27.410Z,64.15
2017-08-11T02:15:27.395Z,64.63
2017-08-11T02:16:27.697Z,64.43
2017-08-11T02:17:27.685Z,64.53
2017-08-11T02:18:27.680Z,64.53
2017-08-11T02:19:27.659Z,64.53
2017-08-11T02:20:27.651Z,64.43
2017-08-11T02:21:27.634Z,64.63
2017-08-11T02:22:27.626Z,64.63
2017-08-11T02:23:27.613Z,64.72
2017-08-11T02:24:27.598Z,64.43
2017-08-11T02:25:27.480Z,64.92
2017-08-11T02:26:27.577Z,65.11
2017-08-11T02:27:27.568Z,64.72
2017-08-11T02:28:27.556Z,64.72
2017-08-11T02:29:27.542Z,64.34
2017-08-11T02:30:27.529Z,64.43
2017-08-11T02:31:27.204Z,63.86
2017-08-11T02:32:27.507Z,63.96
2017-08-11T02:33:27.498Z,64.43
2017-08-11T02:34:27.483Z,63.96
2017-08-11T02:35:27.474Z,64.34
2017-08-11T02:36:27.458Z,64.63
2017-08-11T02:37:27.133Z,63.96
2017-08-11T02:38:27.432Z,64.25
2017-08-11T02:39:27.421Z,63.76
2017-08-11T02:40:27.412Z,63.76
2017-08-11T02:41:27.399Z,63.96
2017-08-11T02:42:27.389Z,63.96
2017-08-11T02:43:27.372Z,64.05
2017-08-11T02:44:27.050Z,63.86
2017-08-11T02:45:27.349Z,63.86
2017-08-11T02:46:27.340Z,63.76
2017-08-11T02:47:27.015Z,63.76
2017-08-11T02:48:27.317Z,63.67
2017-08-11T02:49:27.302Z,63.57
2017-08-11T02:50:26.977Z,63.57
2017-08-11T02:51:27.305Z,63.76
2017-08-11T02:52:27.263Z,63.57
2017-08-11T02:53:27.253Z,63.57
2017-08-11T02:54:27.246Z,62.62
2017-08-11T02:55:26.914Z,63.57
2017-08-11T02:56:26.907Z,63.48
2017-08-11T02:57:26.894Z,62.81
2017-08-11T02:58:27.198Z,63.57
2017-08-11T02:59:26.873Z,62.9
2017-08-11T03:00:27.219Z,63
2017-08-11T03:01:27.155Z,62.9
2017-08-11T03:02:27.140Z,63
2017-08-11T03:03:26.820Z,63.67
2017-08-11T03:04:27.120Z,63.48
2017-08-11T03:05:27.154Z,62.81
2017-08-11T03:06:27.097Z,62.62
2017-08-11T03:07:27.084Z,62.81
2017-08-11T03:08:27.069Z,63.96
2017-08-11T03:09:27.055Z,63.39
2017-08-11T03:10:26.734Z,62.9
2017-08-11T03:11:26.721Z,63.1
2017-08-11T03:12:27.024Z,62.81
2017-08-11T03:13:27.011Z,63.1
2017-08-11T03:14:26.996Z,63
2017-08-11T03:15:26.989Z,62.71
2017-08-11T03:16:26.667Z,62.52
2017-08-11T03:17:26.966Z,62.9
2017-08-11T03:18:26.640Z,63
2017-08-11T03:19:26.941Z,63.67
2017-08-11T03:20:26.614Z,63.39
2017-08-11T03:21:26.913Z,63
2017-08-11T03:22:26.899Z,62.9
2017-08-11T03:23:26.889Z,62.9
2017-08-11T03:24:26.567Z,62.9
2017-08-11T03:25:26.553Z,62.77
2017-08-11T03:26:26.542Z,62.9
2017-08-11T03:27:26.840Z,62.9
2017-08-11T03:28:26.521Z,62.9
2017-08-11T03:29:26.509Z,63.1
2017-08-11T03:30:26.809Z,62.62
2017-08-11T03:31:26.795Z,62.52
2017-08-11T03:32:26.474Z,62.52
2017-08-11T03:33:26.772Z,63.19
2017-08-11T03:34:26.445Z,62.62
2017-08-11T03:35:26.753Z,62.52
2017-08-11T03:36:26.420Z,62.23
2017-08-11T03:37:26.611Z,62.62
2017-08-11T03:38:26.397Z,62.62
2017-08-11T03:39:26.697Z,62.81
2017-08-11T03:40:26.692Z,62.71
2017-08-11T03:41:26.411Z,62.43
2017-08-11T03:42:26.659Z,62.52
2017-08-11T03:43:26.647Z,62.49
2017-08-11T03:44:26.329Z,62.49
2017-08-11T03:45:26.312Z,62.23
2017-08-11T03:46:26.610Z,62.23
2017-08-11T03:47:26.603Z,62.01
2017-08-11T03:48:26.594Z,62.4
2017-08-11T03:49:26.266Z,62.4
2017-08-11T03:50:26.562Z,62.52
2017-08-11T03:51:26.244Z,62.11
2017-08-11T03:52:26.541Z,62.2
2017-08-11T03:53:26.526Z,62.11
2017-08-11T03:54:26.513Z,62.04
2017-08-11T03:55:26.190Z,62.11
2017-08-11T03:56:26.174Z,62.52
2017-08-11T03:57:26.164Z,62.4
2017-08-11T03:58:26.465Z,62.01
2017-08-11T03:59:26.453Z,62.2
2017-08-11T04:00:26.441Z,62.71
2017-08-11T04:01:26.429Z,62.4
2017-08-11T04:02:26.104Z,62.23
2017-08-11T04:03:26.096Z,62.62
2017-08-11T04:04:26.394Z,62.62
2017-08-11T04:05:26.065Z,62.04
2017-08-11T04:06:26.368Z,62.33
2017-08-11T04:07:26.391Z,61.91
2017-08-11T04:08:26.344Z,62.4
2017-08-11T04:09:26.329Z,62.14
2017-08-11T04:10:26.017Z,62.11
2017-08-11T04:11:26.305Z,62.4
2017-08-11T04:12:25.985Z,62.3
2017-08-11T04:13:25.972Z,62.4
2017-08-11T04:14:25.956Z,62.52
2017-08-11T04:15:26.267Z,62.4
2017-08-11T04:16:26.251Z,62.23
2017-08-11T04:17:25.923Z,62.2
2017-08-11T04:18:26.221Z,61.91
2017-08-11T04:19:25.896Z,62.3
2017-08-11T04:20:25.888Z,62.4
2017-08-11T04:21:26.186Z,62.4
2017-08-11T04:22:26.171Z,62.77
2017-08-11T04:23:25.850Z,61.91
2017-08-11T04:24:26.152Z,62.11
2017-08-11T04:25:26.137Z,62.49
2017-08-11T04:26:26.143Z,62.59
2017-08-11T04:27:26.111Z,62.4
2017-08-11T04:28:26.100Z,63.06
2017-08-11T04:29:26.084Z,63.06
2017-08-11T04:30:26.074Z,63
2017-08-11T04:31:26.059Z,63.06
2017-08-11T04:32:25.789Z,62.68
2017-08-11T04:33:26.041Z,62.87
2017-08-11T04:34:25.714Z,63.1
2017-08-11T04:35:26.017Z,62.87
2017-08-11T04:36:26.001Z,62.81
2017-08-11T04:37:25.676Z,63.06
2017-08-11T04:38:25.673Z,62.49
2017-08-11T04:39:25.966Z,63.1
2017-08-11T04:40:25.956Z,63.26
2017-08-11T04:41:25.940Z,63.35
2017-08-11T04:42:25.930Z,63.1
2017-08-11T04:43:25.917Z,63.35
2017-08-11T04:44:25.931Z,63.73
2017-08-11T04:45:25.889Z,63.54
2017-08-11T04:46:25.875Z,63.54
2017-08-11T04:47:25.866Z,63.93
2017-08-11T04:48:25.540Z,63.96
2017-08-11T04:49:25.840Z,64.12
2017-08-11T04:50:25.520Z,64.12
2017-08-11T04:51:25.814Z,63.96
2017-08-11T04:52:25.861Z,64.05
2017-08-11T04:53:25.478Z,64.02
2017-08-11T04:54:25.779Z,64.25
2017-08-11T04:55:25.454Z,63.93
2017-08-11T04:56:25.445Z,64.05
2017-08-11T04:57:25.745Z,64.15
2017-08-11T04:58:25.744Z,64.25
2017-08-11T04:59:25.410Z,64.53
2017-08-11T05:00:25.708Z,65.08
2017-08-11T05:01:25.382Z,64.82
2017-08-11T05:02:25.686Z,64.92
2017-08-11T05:03:25.359Z,64.5
2017-08-11T05:04:25.658Z,64.53
2017-08-11T05:05:25.337Z,64.79
2017-08-11T05:06:25.633Z,64.82
2017-08-11T05:07:25.672Z,65.3
2017-08-11T05:08:25.611Z,65.68
2017-08-11T05:09:25.285Z,65.17
2017-08-11T05:10:25.587Z,65.45
2017-08-11T05:11:25.572Z,65.11
2017-08-11T05:12:25.253Z,64.82
2017-08-11T05:13:25.239Z,65.01
2017-08-11T05:14:25.226Z,65.3
2017-08-11T05:15:25.212Z,65.2
2017-08-11T05:16:25.513Z,64.82
2017-08-11T05:17:25.503Z,65.11
2017-08-11T05:18:25.181Z,65.08
2017-08-11T05:19:25.165Z,64.82
2017-08-11T05:20:25.155Z,64.82
2017-08-11T05:21:25.477Z,65.11
2017-08-11T05:22:25.437Z,65.39
2017-08-11T05:23:25.113Z,64.53
2017-08-11T05:24:25.105Z,65.2
2017-08-11T05:25:25.090Z,65.3
2017-08-11T05:26:25.394Z,65.49
2017-08-11T05:27:25.384Z,65.97
2017-08-11T05:28:25.055Z,65.97
2017-08-11T05:29:25.354Z,66.25
2017-08-11T05:30:25.034Z,66.25
2017-08-11T05:31:25.330Z,66.25
2017-08-11T05:32:25.321Z,66.35
2017-08-11T05:33:25.306Z,66.25
2017-08-11T05:34:25.295Z,66.41
2017-08-11T05:35:25.282Z,66.35
2017-08-11T05:36:25.269Z,66.45
2017-08-11T05:37:25.458Z,66.25
2017-08-11T05:38:25.244Z,66.45
2017-08-11T05:39:25.231Z,66.54
2017-08-11T05:40:25.227Z,66.35
2017-08-11T05:41:25.212Z,66.06
2017-08-11T05:42:24.888Z,66.45
2017-08-11T05:43:24.880Z,66.54
2017-08-11T05:44:25.174Z,66.45
2017-08-11T05:45:25.162Z,66.64
2017-08-11T05:46:25.149Z,67.41
2017-08-11T05:47:25.138Z,67.98
2017-08-11T05:48:25.122Z,67.79
2017-08-11T05:49:24.802Z,67.88
2017-08-11T05:50:25.102Z,67.69
2017-08-11T05:51:25.088Z,67.98
2017-08-11T05:52:25.088Z,68.36
2017-08-11T05:53:24.759Z,68.84
2017-08-11T05:54:24.740Z,68.94
2017-08-11T05:55:24.729Z,68.74
2017-08-11T05:56:25.031Z,68.94
2017-08-11T05:57:25.018Z,68.74
2017-08-11T05:58:25.005Z,68.84
2017-08-11T05:59:24.680Z,68.46
2017-08-11T06:00:24.984Z,68.07
2017-08-11T06:01:24.970Z,68.36
2017-08-11T06:02:24.962Z,68.84
2017-08-11T06:03:24.634Z,69.23
2017-08-11T06:04:24.938Z,69.32
2017-08-11T06:05:24.613Z,69.13
2017-08-11T06:06:24.908Z,69.51
2017-08-11T06:07:24.587Z,69.8
2017-08-11T06:08:24.889Z,69.42
2017-08-11T06:09:24.873Z,69.7
2017-08-11T06:10:24.866Z,69.6
2017-08-11T06:11:24.854Z,69.89
2017-08-11T06:12:24.847Z,70.18
2017-08-11T06:13:24.832Z,70.09
2017-08-11T06:14:24.498Z,70.66
2017-08-11T06:15:24.802Z,70.66
2017-08-11T06:16:24.792Z,70.47
2017-08-11T06:17:24.780Z,70.85
2017-08-11T06:18:24.764Z,71.71
2017-08-11T06:19:24.477Z,71.81
2017-08-11T06:20:24.428Z,71.14
2017-08-11T06:21:24.732Z,70.56
2017-08-11T06:22:24.422Z,70.37
2017-08-11T06:23:24.702Z,69.99
2017-08-11T06:24:24.379Z,69.8
2017-08-11T06:25:24.684Z,69.99
2017-08-11T06:26:24.358Z,69.8
2017-08-11T06:27:24.344Z,69.8
2017-08-11T06:28:24.645Z,69.8
2017-08-11T06:29:24.636Z,69.7
2017-08-11T06:30:24.622Z,69.8
2017-08-11T06:31:24.299Z,69.6
2017-08-11T06:32:24.291Z,69.42
2017-08-11T06:33:24.273Z,70.37
2017-08-11T06:34:24.266Z,70.56
2017-08-11T06:35:24.566Z,70.56
2017-08-11T06:36:24.559Z,69.99
2017-08-11T06:37:24.539Z,70.09
2017-08-11T06:38:24.536Z,70.89
2017-08-11T06:39:24.531Z,70.7
2017-08-11T06:40:24.508Z,70.21
2017-08-11T06:41:24.504Z,70.41
2017-08-11T06:42:24.485Z,70.6
2017-08-11T06:43:24.161Z,70.03
2017-08-11T06:44:24.469Z,70.21
2017-08-11T06:45:24.449Z,70.79
2017-08-11T06:46:24.129Z,70.6
2017-08-11T06:47:24.114Z,70.89
2017-08-11T06:48:24.416Z,71.08
2017-08-11T06:49:24.093Z,70.98
2017-08-11T06:50:24.392Z,71.08
2017-08-11T06:51:24.077Z,71.08
2017-08-11T06:52:24.374Z,72.32
2017-08-11T06:53:24.361Z,73.19
2017-08-11T06:54:24.346Z,73.38
2017-08-11T06:55:24.334Z,73.38
2017-08-11T06:56:24.013Z,73.09
2017-08-11T06:57:24.004Z,73.38
2017-08-11T06:58:24.302Z,73.09
2017-08-11T06:59:23.976Z,73.38
2017-08-11T07:00:24.276Z,73.28
2017-08-11T07:01:23.954Z,73.19
2017-08-11T07:02:23.943Z,73.57
2017-08-11T07:03:24.254Z,73.57
2017-08-11T07:04:24.234Z,74.43
2017-08-11T07:05:23.912Z,74.33
2017-08-11T07:06:24.214Z,74.15
2017-08-11T07:07:24.199Z,74.24
2017-08-11T07:08:24.187Z,73.95
2017-08-11T07:09:24.175Z,74.62
2017-08-11T07:10:24.165Z,74.24
2017-08-11T07:11:24.157Z,74.82
2017-08-11T07:12:23.832Z,74.33
2017-08-11T07:13:23.817Z,74.52
2017-08-11T07:14:24.122Z,74.52
2017-08-11T07:15:24.106Z,74.24
2017-08-11T07:16:23.788Z,74.05
2017-08-11T07:17:24.088Z,74.62
2017-08-11T07:18:23.763Z,75.2
2017-08-11T07:19:23.752Z,76.06
2017-08-11T07:20:24.054Z,76.54
2017-08-11T07:21:23.729Z,76.15
2017-08-11T07:22:23.718Z,76.15
2017-08-11T07:23:24.069Z,75.87
2017-08-11T07:24:23.697Z,76.35
2017-08-11T07:25:23.684Z,76.54
2017-08-11T07:26:23.988Z,76.35
2017-08-11T07:27:23.977Z,76.15
2017-08-11T07:28:23.958Z,76.25
2017-08-11T07:29:23.952Z,76.25
2017-08-11T07:30:23.939Z,76.35
2017-08-11T07:31:23.932Z,76.15
2017-08-11T07:32:23.605Z,75.58
2017-08-11T07:33:23.905Z,76.54
2017-08-11T07:34:23.580Z,76.15
2017-08-11T07:35:23.883Z,76.54
2017-08-11T07:36:23.870Z,76.44
2017-08-11T07:37:24.072Z,75.77
2017-08-11T07:38:23.849Z,75.96
2017-08-11T07:39:23.837Z,76.35
2017-08-11T07:40:23.513Z,75.29
2017-08-11T07:41:23.506Z,75.58
2017-08-11T07:42:23.489Z,76.15
2017-08-11T07:43:23.793Z,76.06
2017-08-11T07:44:23.780Z,76.73
2017-08-11T07:45:23.775Z,77.4
2017-08-11T07:46:23.762Z,77.31
2017-08-11T07:47:23.745Z,78.07
2017-08-11T07:48:23.735Z,77.97
2017-08-11T07:49:23.726Z,77.5
2017-08-11T07:50:23.717Z,77.11
2017-08-11T07:51:23.389Z,77.31
2017-08-11T07:52:23.392Z,77.02
2017-08-11T07:53:23.706Z,77.31
2017-08-11T07:54:23.666Z,78.17
2017-08-11T07:55:23.658Z,77.97
2017-08-11T07:56:23.344Z,77.4
2017-08-11T07:57:23.325Z,77.4
2017-08-11T07:58:23.629Z,77.5
2017-08-11T07:59:23.301Z,78.27
2017-08-11T08:00:23.605Z,78.36
2017-08-11T08:01:23.593Z,78.45
2017-08-11T08:02:23.578Z,78.07
2017-08-11T08:03:23.569Z,78.45
2017-08-11T08:04:23.560Z,78.45
2017-08-11T08:05:23.759Z,78.07
2017-08-11T08:06:23.534Z,77.31
2017-08-11T08:07:23.525Z,77.97
2017-08-11T08:08:23.203Z,77.97
2017-08-11T08:09:23.505Z,78.93
2017-08-11T08:10:23.181Z,77.59
2017-08-11T08:11:23.480Z,79.32
2017-08-11T08:12:23.467Z,78.45
2017-08-11T08:13:23.455Z,78.64
2017-08-11T08:14:23.133Z,79.32
2017-08-11T08:15:23.436Z,79.32
2017-08-11T08:16:23.423Z,79.51
2017-08-11T08:17:23.411Z,79.8
2017-08-11T08:18:23.089Z,78.64
2017-08-11T08:19:23.389Z,79.41
2017-08-11T08:20:23.063Z,79.13
2017-08-11T08:21:23.368Z,78.84
2017-08-11T08:22:23.353Z,78.36
2017-08-11T08:23:23.030Z,78.07
2017-08-11T08:24:23.329Z,77.97
2017-08-11T08:25:23.018Z,78.27
2017-08-11T08:26:23.313Z,79.32
2017-08-11T08:27:23.301Z,80.66
2017-08-11T08:28:23.285Z,79.6
2017-08-11T08:29:23.273Z,78.74
2017-08-11T08:30:23.265Z,78.27
2017-08-11T08:31:23.256Z,78.55
2017-08-11T08:32:23.242Z,78.17
2017-08-11T08:33:23.231Z,77.88
2017-08-11T08:34:23.220Z,79.13
2017-08-11T08:35:23.208Z,79.41
2017-08-11T08:36:23.203Z,78.93
2017-08-11T08:37:22.875Z,78.4
2017-08-11T08:38:23.174Z,78.45
2017-08-11T08:39:23.163Z,78.69
2017-08-11T08:40:23.153Z,78.49
2017-08-11T08:41:23.177Z,81.27
2017-08-11T08:42:22.819Z,80.41
2017-08-11T08:43:22.809Z,79.55
2017-08-11T08:44:22.794Z,79.64
2017-08-11T08:45:23.103Z,79.45
2017-08-11T08:46:23.090Z,78.78
2017-08-11T08:47:22.759Z,77.82
2017-08-11T08:48:23.068Z,77.92
2017-08-11T08:49:22.742Z,78.78
2017-08-11T08:50:23.043Z,80.51
2017-08-11T08:51:23.027Z,83.38
2017-08-11T08:52:22.705Z,86.35
2017-08-11T08:53:22.703Z,84.25
2017-08-11T08:54:23.003Z,83.86
2017-08-11T08:55:22.987Z,82.71
2017-08-11T08:56:22.975Z,81.56
2017-08-11T08:57:22.965Z,81.89
2017-08-11T08:58:22.954Z,82.37
2017-08-11T08:59:22.944Z,85.25
2017-08-11T09:00:22.619Z,85.53
2017-08-11T09:01:22.932Z,85.15
2017-08-11T09:02:22.917Z,87.26
2017-08-11T09:03:22.586Z,85.82
2017-08-11T09:04:22.890Z,85.25
2017-08-11T09:05:22.570Z,88.02
2017-08-11T09:06:22.555Z,87.45
2017-08-11T09:07:22.858Z,85.63
2017-08-11T09:08:22.855Z,86.3
2017-08-11T09:09:22.842Z,87.74
2017-08-11T09:10:22.518Z,87.16
2017-08-11T09:11:22.504Z,86.58
2017-08-11T09:12:22.808Z,87.64
2017-08-11T09:13:22.795Z,87.64
2017-08-11T09:14:22.787Z,86.78
2017-08-11T09:15:22.776Z,86.4
2017-08-11T09:16:22.454Z,86.88
2017-08-11T09:17:22.753Z,88.89
2017-08-11T09:18:22.745Z,88.7
2017-08-11T09:19:22.426Z,91.42
2017-08-11T09:20:22.727Z,91.19
2017-08-11T09:21:22.718Z,90.9
2017-08-11T09:22:22.710Z,89.27
2017-08-11T09:23:22.697Z,89.65
2017-08-11T09:24:22.375Z,88.89
2017-08-11T09:25:22.680Z,92.44
2017-08-11T09:26:22.666Z,92.82
2017-08-11T09:27:22.344Z,91.67
2017-08-11T09:28:22.650Z,91.77
2017-08-11T09:29:22.685Z,88.98
2017-08-11T09:30:22.314Z,92.05
2017-08-11T09:31:22.621Z,90.61
2017-08-11T09:32:22.605Z,88.89
2017-08-11T09:33:22.283Z,90.52
2017-08-11T09:34:22.587Z,91.09
2017-08-11T09:35:22.580Z,91
2017-08-11T09:36:22.250Z,90.42
2017-08-11T09:37:22.443Z,91.38
2017-08-11T09:38:22.232Z,89.65
2017-08-11T09:39:22.222Z,89.94
2017-08-11T09:40:22.209Z,90.04
2017-08-11T09:41:22.513Z,90.9
2017-08-11T09:42:22.503Z,90.85
2017-08-11T09:43:22.494Z,91.14
2017-08-11T09:44:22.483Z,91.19
2017-08-11T09:45:22.158Z,92.24
2017-08-11T09:46:22.467Z,93.25
2017-08-11T09:47:22.449Z,92.82
2017-08-11T09:48:22.441Z,92.54
2017-08-11T09:49:22.433Z,93.11
2017-08-11T09:50:22.420Z,93.4
2017-08-11T09:51:22.415Z,93.88
2017-08-11T09:52:22.405Z,92.82
2017-08-11T09:53:22.082Z,92.91
2017-08-11T09:54:22.378Z,92.63
2017-08-11T09:55:22.112Z,92.24
2017-08-11T09:56:22.054Z,92.54
2017-08-11T09:57:22.352Z,93.21
2017-08-11T09:58:22.025Z,92.44
2017-08-11T09:59:22.330Z,91.96
2017-08-11T10:00:22.322Z,91.96
2017-08-11T10:01:22.308Z,91.86
2017-08-11T10:02:21.988Z,91.96
2017-08-11T10:03:22.289Z,91.19
2017-08-11T10:04:21.961Z,90.71
2017-08-11T10:05:22.266Z,90.52
2017-08-11T10:06:22.255Z,91.28
2017-08-11T10:07:22.244Z,90.42
2017-08-11T10:08:21.933Z,91.67
2017-08-11T10:09:22.230Z,90.52
2017-08-11T10:10:21.905Z,90.23
2017-08-11T10:11:22.204Z,90.14
2017-08-11T10:12:21.880Z,91.09
2017-08-11T10:13:22.183Z,92.15
2017-08-11T10:14:22.175Z,91.77
2017-08-11T10:15:22.167Z,91
2017-08-11T10:16:22.159Z,92.24
2017-08-11T10:17:21.829Z,92.44
2017-08-11T10:18:22.129Z,91.96
2017-08-11T10:19:22.121Z,91.67
2017-08-11T10:20:22.109Z,91.09
2017-08-11T10:21:22.098Z,90.52
2017-08-11T10:22:21.780Z,91
2017-08-11T10:23:21.767Z,92.34
2017-08-11T10:24:22.067Z,92.48
2017-08-11T10:25:22.058Z,93.21
2017-08-11T10:26:21.740Z,94.79
2017-08-11T10:27:22.071Z,94.31
2017-08-11T10:28:21.721Z,94.59
2017-08-11T10:29:22.021Z,94.79
2017-08-11T10:30:21.695Z,92.68
2017-08-11T10:31:21.993Z,94.12
2017-08-11T10:32:21.676Z,93.15
2017-08-11T10:33:21.997Z,92
2017-08-11T10:34:21.969Z,94.31
2017-08-11T10:35:21.964Z,94.69
2017-08-11T10:36:21.945Z,95.65
2017-08-11T10:37:21.936Z,95.65
2017-08-11T10:38:21.939Z,96.18
2017-08-11T10:39:21.918Z,96.22
2017-08-11T10:40:21.902Z,98.43
2017-08-11T10:41:21.592Z,99.44
2017-08-11T10:42:21.884Z,96.99
2017-08-11T10:43:21.877Z,96.8
2017-08-11T10:44:21.869Z,97.24
2017-08-11T10:45:21.547Z,97.86
2017-08-11T10:46:21.846Z,98.05
2017-08-11T10:47:21.548Z,96.99
2017-08-11T10:48:21.578Z,97.76
2017-08-11T10:49:21.505Z,98.24
2017-08-11T10:50:22.111Z,99.49
2017-08-11T10:51:21.798Z,97.76
2017-08-11T10:52:21.477Z,96.7
2017-08-11T10:53:21.498Z,96.7
2017-08-11T10:54:21.506Z,96.51
2017-08-11T10:55:21.447Z,96.22
2017-08-11T10:56:21.434Z,97.28
2017-08-11T10:57:21.736Z,96.51
2017-08-11T10:58:21.418Z,95.36
2017-08-11T10:59:21.409Z,94.59
2017-08-11T11:00:21.713Z,94.59
2017-08-11T11:01:21.751Z,94.21
2017-08-11T11:02:21.689Z,94.59
2017-08-11T11:03:21.726Z,94.79
2017-08-11T11:04:21.357Z,94.79
2017-08-11T11:05:21.344Z,95.36
2017-08-11T11:06:21.646Z,94.49
2017-08-11T11:07:21.325Z,93.92
2017-08-11T11:08:21.627Z,95.46
2017-08-11T11:09:21.616Z,93.35
2017-08-11T11:10:21.297Z,94.49
2017-08-11T11:11:21.600Z,96.13
2017-08-11T11:12:21.279Z,94.88
2017-08-11T11:13:21.264Z,95.36
2017-08-11T11:14:21.255Z,94.88
2017-08-11T11:15:21.249Z,94.79
2017-08-11T11:16:21.547Z,94.49
2017-08-11T11:17:21.225Z,93.35
2017-08-11T11:18:21.526Z,94.12
2017-08-11T11:19:21.516Z,93.44
2017-08-11T11:20:21.199Z,92.96
2017-08-11T11:21:21.495Z,91.62
2017-08-11T11:22:21.484Z,90.14
2017-08-11T11:23:21.162Z,89.56
2017-08-11T11:24:21.469Z,89.22
2017-08-11T11:25:21.142Z,88.93
2017-08-11T11:26:21.445Z,88.26
2017-08-11T11:27:21.434Z,90.75
2017-08-11T11:28:21.420Z,89.85
2017-08-11T11:29:21.411Z,87.98
2017-08-11T11:30:21.403Z,87.45
2017-08-11T11:31:21.391Z,87.45
2017-08-11T11:32:21.381Z,86.88
2017-08-11T11:33:21.368Z,87.07
2017-08-11T11:34:21.363Z,86.97
2017-08-11T11:35:21.349Z,87.16
2017-08-11T11:36:21.339Z,86.58
2017-08-11T11:37:21.331Z,86.68
2017-08-11T11:38:21.315Z,86.49
2017-08-11T11:39:21.306Z,87.16
2017-08-11T11:40:21.297Z,86.58
2017-08-11T11:41:21.285Z,86.68
2017-08-11T11:42:21.275Z,86.97
2017-08-11T11:43:21.266Z,87.84
2017-08-11T11:44:21.256Z,87.35
2017-08-11T11:45:20.937Z,87.07
2017-08-11T11:46:21.243Z,87.35
2017-08-11T11:47:20.912Z,87.45
2017-08-11T11:48:20.902Z,86.01
2017-08-11T11:49:21.203Z,85.82
2017-08-11T11:50:21.192Z,85.82
2017-08-11T11:51:21.185Z,86.21
2017-08-11T11:52:21.206Z,86.78
2017-08-11T11:53:20.846Z,86.3
2017-08-11T11:54:21.202Z,86.58
2017-08-11T11:55:21.137Z,86.4
2017-08-11T11:56:20.813Z,87.74
2017-08-11T11:57:21.120Z,89.85
2017-08-11T11:58:20.794Z,88.7
2017-08-11T11:59:21.101Z,88.89
2017-08-11T12:00:20.770Z,90.23
2017-08-11T12:01:20.764Z,90.14
2017-08-11T12:02:20.751Z,90.14
2017-08-11T12:03:20.742Z,88.79
2017-08-11T12:04:21.048Z,87.16
2017-08-11T12:05:21.029Z,90.23
2017-08-11T12:06:21.027Z,89.94
2017-08-11T12:07:21.007Z,89.65
2017-08-11T12:08:20.999Z,88.79
2017-08-11T12:09:20.677Z,89.94
2017-08-11T12:10:20.979Z,89.94
2017-08-11T12:11:20.967Z,91.57
2017-08-11T12:12:20.956Z,90.04
2017-08-11T12:13:20.948Z,90.52
2017-08-11T12:14:20.632Z,88.79
2017-08-11T12:15:20.931Z,89.75
2017-08-11T12:16:20.972Z,88.22
2017-08-11T12:17:20.937Z,87.45
2017-08-11T12:18:20.898Z,89.56
2017-08-11T12:19:20.883Z,89.65
2017-08-11T12:20:20.874Z,89.27
2017-08-11T12:21:20.861Z,88.79
2017-08-11T12:22:20.539Z,89.56
2017-08-11T12:23:20.530Z,89.65
2017-08-11T12:24:20.830Z,88.6
2017-08-11T12:25:20.822Z,88.6
2017-08-11T12:26:20.495Z,89.56
2017-08-11T12:27:20.800Z,88.6
2017-08-11T12:28:20.791Z,87.16
2017-08-11T12:29:20.778Z,87.07
2017-08-11T12:30:20.451Z,86.88
2017-08-11T12:31:20.450Z,86.21
2017-08-11T12:32:20.432Z,86.88
2017-08-11T12:33:20.732Z,87.35
2017-08-11T12:34:20.410Z,87.35
2017-08-11T12:35:20.399Z,87.35
2017-08-11T12:36:20.389Z,87.45
2017-08-11T12:37:20.408Z,87.55
2017-08-11T12:38:20.678Z,86.78
2017-08-11T12:39:20.358Z,87.45
2017-08-11T12:40:20.659Z,87.4
2017-08-11T12:41:20.645Z,86.78
2017-08-11T12:42:20.644Z,87.98
2017-08-11T12:43:20.626Z,92.96
2017-08-11T12:44:20.615Z,92.19
2017-08-11T12:45:20.291Z,92.1
2017-08-11T12:46:20.646Z,91.57
2017-08-11T12:47:20.270Z,91.14
2017-08-11T12:48:20.579Z,90.56
2017-08-11T12:49:20.567Z,89.89
2017-08-11T12:50:20.563Z,88.98
2017-08-11T12:51:20.230Z,89.99
2017-08-11T12:52:20.530Z,90.61
2017-08-11T12:53:20.520Z,90.18
2017-08-11T12:54:20.506Z,90.08
2017-08-11T12:55:20.508Z,88.12
2017-08-11T12:56:20.181Z,87.49